sensor_id;sensor_type;location;lat;lon;timestamp;pressure;altitude;pressure_sealevel;temperature;humidity
44313;BME280;38833;51.142;-0.974;2022-10-16T00:01:41;99074.36;;;24.31;35.96
44313;BME280;38833;51.142;-0.974;2022-10-16T00:04:14;99076.67;;;24.05;35.97
44313;BME280;38833;51.142;-0.974;2022-10-16T00:06:47;99078.44;;;24.01;35.98
44313;BME280;38833;51.142;-0.974;2022-10-16T00:09:20;99081.02;;;23.99;35.94
44313;BME280;38833;51.142;-0.974;2022-10-16T00:11:54;99089.78;;;24.10;36.06
44313;BME280;38833;51.142;-0.974;2022-10-16T00:14:27;99095.73;;;24.20;35.89
44313;BME280;38833;51.142;-0.974;2022-10-16T00:17:00;99091.95;;;23.91;35.95
44313;BME280;38833;51.142;-0.974;2022-10-16T00:19:33;99094.74;;;23.87;35.96
44313;BME280;38833;51.142;-0.974;2022-10-16T00:22:06;99095.00;;;24.10;35.91
44313;BME280;38833;51.142;-0.974;2022-10-16T00:24:39;99094.22;;;23.90;35.85
44313;BME280;38833;51.142;-0.974;2022-10-16T00:27:12;99094.03;;;24.07;35.86
44313;BME280;38833;51.142;-0.974;2022-10-16T00:29:49;99092.46;;;23.89;35.76
44313;BME280;38833;51.142;-0.974;2022-10-16T00:32:22;99099.01;;;23.99;35.91
44313;BME280;38833;51.142;-0.974;2022-10-16T00:34:56;99097.87;;;23.90;36.00
44313;BME280;38833;51.142;-0.974;2022-10-16T00:37:29;99091.84;;;23.91;35.92
44313;BME280;38833;51.142;-0.974;2022-10-16T00:40:03;99093.74;;;23.94;35.86
44313;BME280;38833;51.142;-0.974;2022-10-16T00:42:36;99092.20;;;23.83;35.97
44313;BME280;38833;51.142;-0.974;2022-10-16T00:45:10;99097.27;;;24.07;36.00
44313;BME280;38833;51.142;-0.974;2022-10-16T00:47:45;99098.16;;;23.71;36.11
44313;BME280;38833;51.142;-0.974;2022-10-16T00:50:27;99097.55;;;23.65;36.15
44313;BME280;38833;51.142;-0.974;2022-10-16T00:53:01;99101.55;;;23.73;36.03
44313;BME280;38833;51.142;-0.974;2022-10-16T00:55:36;99100.62;;;23.70;36.02
44313;BME280;38833;51.142;-0.974;2022-10-16T00:58:10;99105.11;;;23.93;36.05
44313;BME280;38833;51.142;-0.974;2022-10-16T01:00:43;99126.26;;;23.54;35.91
44313;BME280;38833;51.142;-0.974;2022-10-16T01:03:27;99143.24;;;23.77;35.89
44313;BME280;38833;51.142;-0.974;2022-10-16T01:06:10;99137.78;;;23.60;36.09
44313;BME280;38833;51.142;-0.974;2022-10-16T01:08:53;99130.68;;;23.66;35.98
44313;BME280;38833;51.142;-0.974;2022-10-16T01:11:35;99123.92;;;23.59;36.04
44313;BME280;38833;51.142;-0.974;2022-10-16T01:14:15;99130.47;;;23.56;36.07
44313;BME280;38833;51.142;-0.974;2022-10-16T01:16:57;99127.28;;;23.61;35.93
44313;BME280;38833;51.142;-0.974;2022-10-16T01:19:50;99125.23;;;23.61;35.93
44313;BME280;38833;51.142;-0.974;2022-10-16T01:22:38;99126.32;;;23.62;35.83
44313;BME280;38833;51.142;-0.974;2022-10-16T01:25:20;99122.91;;;23.46;36.07
44313;BME280;38833;51.142;-0.974;2022-10-16T01:27:57;99126.28;;;23.57;35.92
44313;BME280;38833;51.142;-0.974;2022-10-16T01:30:34;99125.55;;;23.62;35.80
44313;BME280;38833;51.142;-0.974;2022-10-16T01:33:11;99124.96;;;23.50;35.94
44313;BME280;38833;51.142;-0.974;2022-10-16T01:35:52;99118.43;;;23.72;35.97
44313;BME280;38833;51.142;-0.974;2022-10-16T01:38:30;99119.02;;;23.66;35.69
44313;BME280;38833;51.142;-0.974;2022-10-16T01:41:09;99128.25;;;23.45;35.93
44313;BME280;38833;51.142;-0.974;2022-10-16T01:43:48;99133.03;;;23.42;35.97
44313;BME280;38833;51.142;-0.974;2022-10-16T01:46:23;99134.05;;;23.51;35.82
44313;BME280;38833;51.142;-0.974;2022-10-16T01:48:58;99134.79;;;23.42;35.89
44313;BME280;38833;51.142;-0.974;2022-10-16T01:51:32;99137.43;;;23.45;35.86
44313;BME280;38833;51.142;-0.974;2022-10-16T01:54:08;99129.18;;;23.37;35.91
44313;BME280;38833;51.142;-0.974;2022-10-16T01:56:43;99141.34;;;23.39;35.88
44313;BME280;38833;51.142;-0.974;2022-10-16T01:59:20;99138.37;;;23.41;35.84
44313;BME280;38833;51.142;-0.974;2022-10-16T02:01:59;99142.90;;;23.42;35.79
44313;BME280;38833;51.142;-0.974;2022-10-16T02:04:37;99154.24;;;23.41;35.78
44313;BME280;38833;51.142;-0.974;2022-10-16T02:07:11;99148.47;;;23.33;35.89
44313;BME280;38833;51.142;-0.974;2022-10-16T02:09:45;99149.93;;;23.17;36.08
44313;BME280;38833;51.142;-0.974;2022-10-16T02:12:23;99154.89;;;23.64;35.81
44313;BME280;38833;51.142;-0.974;2022-10-16T02:14:58;99156.24;;;23.14;35.79
44313;BME280;38833;51.142;-0.974;2022-10-16T02:17:32;99163.24;;;23.18;36.01
44313;BME280;38833;51.142;-0.974;2022-10-16T02:20:06;99162.23;;;23.24;35.92
44313;BME280;38833;51.142;-0.974;2022-10-16T02:22:42;99165.17;;;23.10;36.10
44313;BME280;38833;51.142;-0.974;2022-10-16T02:25:21;99165.33;;;23.18;36.00
44313;BME280;38833;51.142;-0.974;2022-10-16T02:28:00;99162.81;;;23.53;36.17
44313;BME280;38833;51.142;-0.974;2022-10-16T02:30:39;99171.31;;;23.25;35.85
44313;BME280;38833;51.142;-0.974;2022-10-16T02:33:15;99172.12;;;23.21;35.89
44313;BME280;38833;51.142;-0.974;2022-10-16T02:35:50;99167.34;;;23.11;36.03
44313;BME280;38833;51.142;-0.974;2022-10-16T02:38:25;99163.43;;;23.26;36.18
44313;BME280;38833;51.142;-0.974;2022-10-16T02:40:58;99164.95;;;23.10;36.01
44313;BME280;38833;51.142;-0.974;2022-10-16T02:43:32;99168.98;;;23.28;36.11
44313;BME280;38833;51.142;-0.974;2022-10-16T02:46:05;99173.92;;;23.58;36.00
44313;BME280;38833;51.142;-0.974;2022-10-16T02:48:38;99171.34;;;23.16;35.90
44313;BME280;38833;51.142;-0.974;2022-10-16T02:51:11;99173.01;;;23.38;35.95
44313;BME280;38833;51.142;-0.974;2022-10-16T02:53:44;99175.81;;;22.93;36.18
44313;BME280;38833;51.142;-0.974;2022-10-16T02:56:17;99182.38;;;23.46;36.13
44313;BME280;38833;51.142;-0.974;2022-10-16T02:58:50;99181.18;;;23.23;36.11
44313;BME280;38833;51.142;-0.974;2022-10-16T03:01:24;99179.16;;;23.33;35.97
44313;BME280;38833;51.142;-0.974;2022-10-16T03:03:57;99182.62;;;23.24;36.05
44313;BME280;38833;51.142;-0.974;2022-10-16T03:06:30;99190.58;;;23.20;36.42
44313;BME280;38833;51.142;-0.974;2022-10-16T03:09:03;99187.73;;;23.02;36.38
44313;BME280;38833;51.142;-0.974;2022-10-16T03:11:36;99196.38;;;23.09;36.27
44313;BME280;38833;51.142;-0.974;2022-10-16T03:14:10;99203.03;;;23.03;36.33
44313;BME280;38833;51.142;-0.974;2022-10-16T03:16:43;99204.13;;;23.21;36.37
44313;BME280;38833;51.142;-0.974;2022-10-16T03:19:17;99202.97;;;22.74;36.31
44313;BME280;38833;51.142;-0.974;2022-10-16T03:21:50;99213.46;;;22.75;36.31
44313;BME280;38833;51.142;-0.974;2022-10-16T03:24:23;99220.89;;;23.05;36.55
44313;BME280;38833;51.142;-0.974;2022-10-16T03:26:56;99217.65;;;23.16;36.39
44313;BME280;38833;51.142;-0.974;2022-10-16T03:29:29;99216.05;;;23.04;36.21
44313;BME280;38833;51.142;-0.974;2022-10-16T03:32:03;99213.95;;;23.07;36.15
44313;BME280;38833;51.142;-0.974;2022-10-16T03:34:36;99218.70;;;23.14;36.03
44313;BME280;38833;51.142;-0.974;2022-10-16T03:37:10;99228.65;;;23.20;36.24
44313;BME280;38833;51.142;-0.974;2022-10-16T03:39:43;99229.60;;;22.89;36.37
44313;BME280;38833;51.142;-0.974;2022-10-16T03:42:16;99238.02;;;22.96;36.25
44313;BME280;38833;51.142;-0.974;2022-10-16T03:44:49;99240.50;;;23.18;36.24
44313;BME280;38833;51.142;-0.974;2022-10-16T03:47:23;99247.50;;;22.87;36.36
44313;BME280;38833;51.142;-0.974;2022-10-16T03:49:56;99249.21;;;22.83;36.42
44313;BME280;38833;51.142;-0.974;2022-10-16T03:52:29;99253.66;;;23.01;36.13
44313;BME280;38833;51.142;-0.974;2022-10-16T03:55:02;99254.81;;;23.11;36.30
44313;BME280;38833;51.142;-0.974;2022-10-16T03:57:36;99256.10;;;22.89;36.27
44313;BME280;38833;51.142;-0.974;2022-10-16T04:00:10;99252.75;;;22.85;36.32
44313;BME280;38833;51.142;-0.974;2022-10-16T04:02:46;99253.70;;;22.79;35.97
44313;BME280;38833;51.142;-0.974;2022-10-16T04:05:20;99265.70;;;22.90;35.79
44313;BME280;38833;51.142;-0.974;2022-10-16T04:07:53;99265.30;;;23.05;35.95
44313;BME280;38833;51.142;-0.974;2022-10-16T04:10:26;99276.26;;;23.17;36.09
44313;BME280;38833;51.142;-0.974;2022-10-16T04:12:59;99281.23;;;22.85;36.22
44313;BME280;38833;51.142;-0.974;2022-10-16T04:15:33;99285.29;;;22.97;36.01
44313;BME280;38833;51.142;-0.974;2022-10-16T04:18:06;99290.27;;;22.96;36.33
44313;BME280;38833;51.142;-0.974;2022-10-16T04:20:40;99285.12;;;22.75;36.33
44313;BME280;38833;51.142;-0.974;2022-10-16T04:23:13;99292.08;;;23.05;36.23
44313;BME280;38833;51.142;-0.974;2022-10-16T04:25:46;99297.36;;;23.05;36.21
44313;BME280;38833;51.142;-0.974;2022-10-16T04:28:19;99298.87;;;22.82;36.18
44313;BME280;38833;51.142;-0.974;2022-10-16T04:30:52;99301.82;;;22.56;36.54
44313;BME280;38833;51.142;-0.974;2022-10-16T04:33:26;99308.96;;;22.64;36.41
44313;BME280;38833;51.142;-0.974;2022-10-16T04:36:00;99316.33;;;22.71;36.33
44313;BME280;38833;51.142;-0.974;2022-10-16T04:38:34;99322.46;;;22.92;36.32
44313;BME280;38833;51.142;-0.974;2022-10-16T04:41:07;99326.32;;;22.87;36.42
44313;BME280;38833;51.142;-0.974;2022-10-16T04:43:40;99331.27;;;22.74;36.24
44313;BME280;38833;51.142;-0.974;2022-10-16T04:46:13;99339.39;;;22.67;36.32
44313;BME280;38833;51.142;-0.974;2022-10-16T04:48:46;99341.11;;;22.75;36.19
44313;BME280;38833;51.142;-0.974;2022-10-16T04:51:19;99342.24;;;22.68;36.31
44313;BME280;38833;51.142;-0.974;2022-10-16T04:53:53;99343.51;;;22.69;36.25
44313;BME280;38833;51.142;-0.974;2022-10-16T04:56:26;99346.07;;;22.84;36.34
44313;BME280;38833;51.142;-0.974;2022-10-16T04:58:59;99351.03;;;22.73;36.17
44313;BME280;38833;51.142;-0.974;2022-10-16T05:01:32;99347.81;;;22.66;36.24
44313;BME280;38833;51.142;-0.974;2022-10-16T05:04:06;99349.64;;;22.83;36.29
44313;BME280;38833;51.142;-0.974;2022-10-16T05:06:39;99353.22;;;22.31;36.33
44313;BME280;38833;51.142;-0.974;2022-10-16T05:09:12;99354.27;;;22.60;36.28
44313;BME280;38833;51.142;-0.974;2022-10-16T05:11:45;99358.35;;;22.56;36.29
44313;BME280;38833;51.142;-0.974;2022-10-16T05:14:19;99366.51;;;22.43;36.46
44313;BME280;38833;51.142;-0.974;2022-10-16T05:16:53;99370.44;;;22.54;36.29
44313;BME280;38833;51.142;-0.974;2022-10-16T05:19:26;99373.77;;;22.90;36.09
44313;BME280;38833;51.142;-0.974;2022-10-16T05:21:59;99378.38;;;22.56;36.24
44313;BME280;38833;51.142;-0.974;2022-10-16T05:24:32;99387.02;;;22.67;36.38
44313;BME280;38833;51.142;-0.974;2022-10-16T05:27:05;99395.32;;;22.50;36.30
44313;BME280;38833;51.142;-0.974;2022-10-16T05:29:39;99399.31;;;22.55;36.54
44313;BME280;38833;51.142;-0.974;2022-10-16T05:32:12;99406.32;;;22.44;36.35
44313;BME280;38833;51.142;-0.974;2022-10-16T05:34:45;99410.78;;;22.75;36.24
44313;BME280;38833;51.142;-0.974;2022-10-16T05:37:19;99418.05;;;22.85;36.13
44313;BME280;38833;51.142;-0.974;2022-10-16T05:39:52;99423.59;;;22.77;35.90
44313;BME280;38833;51.142;-0.974;2022-10-16T05:42:25;99425.31;;;22.90;35.91
44313;BME280;38833;51.142;-0.974;2022-10-16T05:44:58;99431.90;;;22.63;36.35
44313;BME280;38833;51.142;-0.974;2022-10-16T05:47:31;99435.80;;;22.59;36.56
44313;BME280;38833;51.142;-0.974;2022-10-16T05:50:05;99436.50;;;22.31;36.75
44313;BME280;38833;51.142;-0.974;2022-10-16T05:52:39;99436.69;;;22.39;36.75
44313;BME280;38833;51.142;-0.974;2022-10-16T05:55:12;99440.71;;;22.40;36.90
44313;BME280;38833;51.142;-0.974;2022-10-16T05:57:45;99440.27;;;22.26;36.83
44313;BME280;38833;51.142;-0.974;2022-10-16T06:00:19;99442.81;;;22.61;36.84
44313;BME280;38833;51.142;-0.974;2022-10-16T06:02:52;99449.75;;;22.58;36.61
44313;BME280;38833;51.142;-0.974;2022-10-16T06:05:26;99453.81;;;22.65;36.61
44313;BME280;38833;51.142;-0.974;2022-10-16T06:07:59;99456.45;;;22.70;36.64
44313;BME280;38833;51.142;-0.974;2022-10-16T06:10:32;99460.01;;;22.81;36.57
44313;BME280;38833;51.142;-0.974;2022-10-16T06:13:05;99461.26;;;22.91;36.54
44313;BME280;38833;51.142;-0.974;2022-10-16T06:15:39;99460.92;;;23.01;36.49
44313;BME280;38833;51.142;-0.974;2022-10-16T06:18:13;99459.56;;;23.16;36.38
44313;BME280;38833;51.142;-0.974;2022-10-16T06:20:46;99465.99;;;23.32;36.23
44313;BME280;38833;51.142;-0.974;2022-10-16T06:23:19;99467.18;;;23.33;36.29
44313;BME280;38833;51.142;-0.974;2022-10-16T06:25:52;99469.81;;;23.50;36.14
44313;BME280;38833;51.142;-0.974;2022-10-16T06:28:25;99468.46;;;23.38;36.05
44313;BME280;38833;51.142;-0.974;2022-10-16T06:30:59;99465.29;;;23.27;35.93
44313;BME280;38833;51.142;-0.974;2022-10-16T06:33:32;99471.10;;;23.91;35.71
44313;BME280;38833;51.142;-0.974;2022-10-16T06:36:07;99472.85;;;23.71;35.72
44313;BME280;38833;51.142;-0.974;2022-10-16T06:38:42;99474.30;;;24.04;35.57
44313;BME280;38833;51.142;-0.974;2022-10-16T06:41:17;99478.96;;;23.64;35.56
44313;BME280;38833;51.142;-0.974;2022-10-16T06:43:50;99483.80;;;23.71;35.49
44313;BME280;38833;51.142;-0.974;2022-10-16T06:46:25;99490.37;;;23.96;35.17
44313;BME280;38833;51.142;-0.974;2022-10-16T06:48:58;99496.10;;;23.93;35.22
44313;BME280;38833;51.142;-0.974;2022-10-16T06:51:32;99497.87;;;23.96;35.18
44313;BME280;38833;51.142;-0.974;2022-10-16T06:54:05;99497.87;;;24.09;35.02
44313;BME280;38833;51.142;-0.974;2022-10-16T06:56:38;99503.91;;;24.18;35.19
44313;BME280;38833;51.142;-0.974;2022-10-16T06:59:11;99505.88;;;24.19;35.17
44313;BME280;38833;51.142;-0.974;2022-10-16T07:01:44;99509.76;;;24.33;35.00
44313;BME280;38833;51.142;-0.974;2022-10-16T07:04:17;99511.80;;;24.11;35.00
44313;BME280;38833;51.142;-0.974;2022-10-16T07:06:51;99515.45;;;24.40;34.89
44313;BME280;38833;51.142;-0.974;2022-10-16T07:09:24;99519.31;;;24.29;34.74
44313;BME280;38833;51.142;-0.974;2022-10-16T07:11:57;99525.24;;;24.17;34.90
44313;BME280;38833;51.142;-0.974;2022-10-16T07:14:30;99524.91;;;24.19;34.87
44313;BME280;38833;51.142;-0.974;2022-10-16T07:17:03;99523.98;;;24.42;34.55
44313;BME280;38833;51.142;-0.974;2022-10-16T07:19:37;99527.56;;;24.38;34.57
44313;BME280;38833;51.142;-0.974;2022-10-16T07:22:10;99534.26;;;24.29;34.66
44313;BME280;38833;51.142;-0.974;2022-10-16T07:24:43;99540.91;;;24.53;34.37
44313;BME280;38833;51.142;-0.974;2022-10-16T07:27:16;99542.50;;;24.52;34.36
44313;BME280;38833;51.142;-0.974;2022-10-16T07:29:50;99549.58;;;24.60;34.21
44313;BME280;38833;51.142;-0.974;2022-10-16T07:32:23;99557.14;;;24.57;34.19
44313;BME280;38833;51.142;-0.974;2022-10-16T07:34:56;99558.40;;;24.75;33.92
44313;BME280;38833;51.142;-0.974;2022-10-16T07:37:29;99557.06;;;24.65;33.99
44313;BME280;38833;51.142;-0.974;2022-10-16T07:40:03;99557.36;;;24.63;34.00
44313;BME280;38833;51.142;-0.974;2022-10-16T07:42:36;99562.74;;;24.87;33.95
44313;BME280;38833;51.142;-0.974;2022-10-16T07:45:10;99568.67;;;24.59;33.98
44313;BME280;38833;51.142;-0.974;2022-10-16T07:47:43;99569.64;;;24.55;34.00
44313;BME280;38833;51.142;-0.974;2022-10-16T07:50:16;99573.74;;;24.50;34.02
44313;BME280;38833;51.142;-0.974;2022-10-16T07:52:49;99577.55;;;24.61;33.85
44313;BME280;38833;51.142;-0.974;2022-10-16T07:55:22;99579.70;;;24.45;34.02
44313;BME280;38833;51.142;-0.974;2022-10-16T07:57:55;99580.83;;;24.63;33.81
44313;BME280;38833;51.142;-0.974;2022-10-16T08:00:28;99584.34;;;24.53;33.85
44313;BME280;38833;51.142;-0.974;2022-10-16T08:03:02;99591.70;;;24.38;33.71
44313;BME280;38833;51.142;-0.974;2022-10-16T08:05:35;99593.07;;;24.40;33.63
44313;BME280;38833;51.142;-0.974;2022-10-16T08:08:12;99594.75;;;24.55;33.74
44313;BME280;38833;51.142;-0.974;2022-10-16T08:10:46;99599.17;;;24.51;33.76
44313;BME280;38833;51.142;-0.974;2022-10-16T08:13:19;99599.99;;;24.68;33.53
44313;BME280;38833;51.142;-0.974;2022-10-16T08:15:54;99604.21;;;24.88;33.52
44313;BME280;38833;51.142;-0.974;2022-10-16T08:18:27;99609.09;;;24.62;33.55
44313;BME280;38833;51.142;-0.974;2022-10-16T08:21:00;99612.14;;;24.56;33.60
44313;BME280;38833;51.142;-0.974;2022-10-16T08:23:34;99613.87;;;24.50;33.64
44313;BME280;38833;51.142;-0.974;2022-10-16T08:26:08;99615.33;;;24.41;33.73
44313;BME280;38833;51.142;-0.974;2022-10-16T08:28:41;99613.32;;;24.59;33.79
44313;BME280;38833;51.142;-0.974;2022-10-16T08:31:15;99615.62;;;24.28;33.90
44313;BME280;38833;51.142;-0.974;2022-10-16T08:33:49;99619.26;;;24.30;33.85
44313;BME280;38833;51.142;-0.974;2022-10-16T08:36:22;99625.25;;;24.74;33.86
44313;BME280;38833;51.142;-0.974;2022-10-16T08:38:55;99630.58;;;24.22;33.93
44313;BME280;38833;51.142;-0.974;2022-10-16T08:42:11;99627.78;;;24.66;33.92
44313;BME280;38833;51.142;-0.974;2022-10-16T08:45:03;99635.86;;;24.13;34.02
44313;BME280;38833;51.142;-0.974;2022-10-16T08:47:48;99643.26;;;24.18;33.95
44313;BME280;38833;51.142;-0.974;2022-10-16T08:50:24;99644.46;;;24.44;33.86
44313;BME280;38833;51.142;-0.974;2022-10-16T08:52:58;99648.82;;;24.32;33.98
44313;BME280;38833;51.142;-0.974;2022-10-16T08:55:38;99650.30;;;24.32;33.98
44313;BME280;38833;51.142;-0.974;2022-10-16T08:58:16;99653.37;;;24.10;33.97
44313;BME280;38833;51.142;-0.974;2022-10-16T09:00:53;99656.22;;;24.46;34.04
44313;BME280;38833;51.142;-0.974;2022-10-16T09:03:36;99653.11;;;23.93;34.15
44313;BME280;38833;51.142;-0.974;2022-10-16T09:06:22;99654.78;;;24.12;34.18
44313;BME280;38833;51.142;-0.974;2022-10-16T09:09:09;99660.85;;;23.81;34.56
44313;BME280;38833;51.142;-0.974;2022-10-16T09:11:52;99657.65;;;24.22;34.30
44313;BME280;38833;51.142;-0.974;2022-10-16T09:14:41;99658.70;;;23.63;34.53
44313;BME280;38833;51.142;-0.974;2022-10-16T09:17:30;99661.08;;;24.13;34.57
44313;BME280;38833;51.142;-0.974;2022-10-16T09:20:18;99662.48;;;24.00;34.58
44313;BME280;38833;51.142;-0.974;2022-10-16T09:23:00;99663.49;;;23.68;34.72
44313;BME280;38833;51.142;-0.974;2022-10-16T09:25:44;99657.93;;;24.03;34.76
44313;BME280;38833;51.142;-0.974;2022-10-16T09:28:18;99661.85;;;23.73;34.63
44313;BME280;38833;51.142;-0.974;2022-10-16T09:30:52;99668.06;;;23.56;34.79
44313;BME280;38833;51.142;-0.974;2022-10-16T09:33:28;99672.56;;;23.90;34.56
44313;BME280;38833;51.142;-0.974;2022-10-16T09:36:05;99674.79;;;23.91;34.71
44313;BME280;38833;51.142;-0.974;2022-10-16T09:38:38;99671.77;;;23.98;34.59
44313;BME280;38833;51.142;-0.974;2022-10-16T09:41:17;99675.15;;;23.87;35.08
44313;BME280;38833;51.142;-0.974;2022-10-16T09:43:55;99672.09;;;23.44;34.96
44313;BME280;38833;51.142;-0.974;2022-10-16T09:46:30;99672.47;;;23.74;34.97
44313;BME280;38833;51.142;-0.974;2022-10-16T09:49:16;99675.69;;;23.63;35.34
44313;BME280;38833;51.142;-0.974;2022-10-16T09:52:03;99677.50;;;23.87;35.02
44313;BME280;38833;51.142;-0.974;2022-10-16T09:54:37;99682.48;;;23.90;34.95
44313;BME280;38833;51.142;-0.974;2022-10-16T09:57:13;99689.85;;;23.76;35.08
44313;BME280;38833;51.142;-0.974;2022-10-16T09:59:48;99689.15;;;23.58;35.30
44313;BME280;38833;51.142;-0.974;2022-10-16T10:02:29;99692.33;;;23.34;34.97
44313;BME280;38833;51.142;-0.974;2022-10-16T10:05:04;99696.58;;;23.47;35.09
44313;BME280;38833;51.142;-0.974;2022-10-16T10:07:42;99694.57;;;23.62;35.18
44313;BME280;38833;51.142;-0.974;2022-10-16T10:10:21;99694.25;;;23.58;34.84
44313;BME280;38833;51.142;-0.974;2022-10-16T10:12:55;99695.98;;;23.76;34.98
44313;BME280;38833;51.142;-0.974;2022-10-16T10:15:34;99696.08;;;23.45;35.39
44313;BME280;38833;51.142;-0.974;2022-10-16T10:18:16;99697.15;;;23.75;34.72
44313;BME280;38833;51.142;-0.974;2022-10-16T10:20:58;99694.73;;;23.54;34.98
44313;BME280;38833;51.142;-0.974;2022-10-16T10:23:31;99691.91;;;23.75;34.88
44313;BME280;38833;51.142;-0.974;2022-10-16T10:26:08;99690.04;;;23.92;34.99
44313;BME280;38833;51.142;-0.974;2022-10-16T10:28:53;99693.45;;;23.61;35.36
44313;BME280;38833;51.142;-0.974;2022-10-16T10:31:35;99689.62;;;23.84;35.70
44313;BME280;38833;51.142;-0.974;2022-10-16T10:34:37;99691.21;;;23.96;35.67
44313;BME280;38833;51.142;-0.974;2022-10-16T10:37:25;99690.56;;;23.78;35.68
44313;BME280;38833;51.142;-0.974;2022-10-16T10:40:09;99688.63;;;23.72;35.51
44313;BME280;38833;51.142;-0.974;2022-10-16T10:42:48;99685.51;;;24.04;35.67
44313;BME280;38833;51.142;-0.974;2022-10-16T10:45:27;99682.18;;;23.77;34.09
44313;BME280;38833;51.142;-0.974;2022-10-16T10:48:14;99686.21;;;23.97;34.58
44313;BME280;38833;51.142;-0.974;2022-10-16T10:50:54;99682.53;;;23.82;35.02
44313;BME280;38833;51.142;-0.974;2022-10-16T10:53:36;99680.70;;;23.65;35.46
44313;BME280;38833;51.142;-0.974;2022-10-16T10:56:24;99683.54;;;23.25;35.56
44313;BME280;38833;51.142;-0.974;2022-10-16T10:59:15;99687.08;;;23.61;35.70
44313;BME280;38833;51.142;-0.974;2022-10-16T11:01:56;99686.21;;;23.55;35.90
44313;BME280;38833;51.142;-0.974;2022-10-16T11:04:45;99683.30;;;24.05;35.69
44313;BME280;38833;51.142;-0.974;2022-10-16T11:07:27;99680.55;;;23.65;35.87
44313;BME280;38833;51.142;-0.974;2022-10-16T11:10:04;99677.88;;;23.51;35.94
44313;BME280;38833;51.142;-0.974;2022-10-16T11:12:43;99677.62;;;23.30;36.04
44313;BME280;38833;51.142;-0.974;2022-10-16T11:15:21;99667.78;;;23.40;35.84
44313;BME280;38833;51.142;-0.974;2022-10-16T11:18:03;99666.12;;;23.66;35.97
44313;BME280;38833;51.142;-0.974;2022-10-16T11:20:42;99666.86;;;23.44;36.03
44313;BME280;38833;51.142;-0.974;2022-10-16T11:23:25;99665.59;;;23.30;36.13
44313;BME280;38833;51.142;-0.974;2022-10-16T11:26:04;99667.22;;;23.58;36.19
44313;BME280;38833;51.142;-0.974;2022-10-16T11:28:42;99667.07;;;23.61;36.45
44313;BME280;38833;51.142;-0.974;2022-10-16T11:31:24;99662.78;;;23.20;36.17
44313;BME280;38833;51.142;-0.974;2022-10-16T11:34:04;99662.55;;;23.43;36.21
44313;BME280;38833;51.142;-0.974;2022-10-16T11:36:43;99659.77;;;23.19;36.22
44313;BME280;38833;51.142;-0.974;2022-10-16T11:39:21;99664.62;;;23.31;35.98
44313;BME280;38833;51.142;-0.974;2022-10-16T11:42:01;99668.56;;;23.29;35.98
44313;BME280;38833;51.142;-0.974;2022-10-16T11:44:48;99667.74;;;23.26;35.94
44313;BME280;38833;51.142;-0.974;2022-10-16T11:47:27;99667.59;;;23.25;35.95
44313;BME280;38833;51.142;-0.974;2022-10-16T11:50:17;99671.75;;;23.27;35.92
44313;BME280;38833;51.142;-0.974;2022-10-16T11:52:59;99669.85;;;23.60;35.80
44313;BME280;38833;51.142;-0.974;2022-10-16T11:55:36;99674.78;;;23.21;35.72
44313;BME280;38833;51.142;-0.974;2022-10-16T11:58:16;99668.22;;;23.40;35.62
44313;BME280;38833;51.142;-0.974;2022-10-16T12:00:58;99663.89;;;23.32;34.99
44313;BME280;38833;51.142;-0.974;2022-10-16T12:03:38;99659.84;;;23.31;34.34
44313;BME280;38833;51.142;-0.974;2022-10-16T12:06:24;99654.40;;;23.40;34.05
44313;BME280;38833;51.142;-0.974;2022-10-16T12:08:59;99652.76;;;23.08;34.23
44313;BME280;38833;51.142;-0.974;2022-10-16T12:11:36;99652.23;;;23.29;34.34
44313;BME280;38833;51.142;-0.974;2022-10-16T12:14:22;99646.28;;;23.29;34.68
44313;BME280;38833;51.142;-0.974;2022-10-16T12:17:23;99639.57;;;23.29;35.00
44313;BME280;38833;51.142;-0.974;2022-10-16T12:19:58;99638.53;;;23.38;35.12
44313;BME280;38833;51.142;-0.974;2022-10-16T12:22:32;99639.28;;;23.47;35.07
44313;BME280;38833;51.142;-0.974;2022-10-16T12:25:17;99636.46;;;23.12;35.34
44313;BME280;38833;51.142;-0.974;2022-10-16T12:27:57;99634.23;;;23.08;35.47
44313;BME280;38833;51.142;-0.974;2022-10-16T12:30:34;99636.68;;;23.40;35.37
44313;BME280;38833;51.142;-0.974;2022-10-16T12:33:20;99635.90;;;23.38;35.43
44313;BME280;38833;51.142;-0.974;2022-10-16T12:35:55;99626.87;;;23.33;35.58
44313;BME280;38833;51.142;-0.974;2022-10-16T12:38:33;99629.22;;;23.21;35.72
44313;BME280;38833;51.142;-0.974;2022-10-16T12:41:09;99632.33;;;23.25;35.71
44313;BME280;38833;51.142;-0.974;2022-10-16T12:43:43;99632.87;;;23.28;35.68
44313;BME280;38833;51.142;-0.974;2022-10-16T12:46:23;99631.27;;;23.24;35.72
44313;BME280;38833;51.142;-0.974;2022-10-16T12:49:15;99632.12;;;23.27;35.66
44313;BME280;38833;51.142;-0.974;2022-10-16T12:51:51;99627.82;;;23.39;35.48
44313;BME280;38833;51.142;-0.974;2022-10-16T12:54:29;99628.11;;;23.70;35.43
44313;BME280;38833;51.142;-0.974;2022-10-16T12:57:18;99628.60;;;23.48;35.38
44313;BME280;38833;51.142;-0.974;2022-10-16T13:00:04;99629.66;;;23.41;35.45
44313;BME280;38833;51.142;-0.974;2022-10-16T13:02:58;99632.99;;;23.42;35.45
44313;BME280;38833;51.142;-0.974;2022-10-16T13:05:47;99631.89;;;23.66;35.45
44313;BME280;38833;51.142;-0.974;2022-10-16T13:08:38;99636.49;;;23.46;35.41
44313;BME280;38833;51.142;-0.974;2022-10-16T13:11:21;99638.97;;;23.50;35.37
44313;BME280;38833;51.142;-0.974;2022-10-16T13:14:11;99642.92;;;23.45;35.44
44313;BME280;38833;51.142;-0.974;2022-10-16T13:16:57;99634.94;;;23.92;35.40
44313;BME280;38833;51.142;-0.974;2022-10-16T13:19:42;99626.80;;;23.49;35.34
44313;BME280;38833;51.142;-0.974;2022-10-16T13:22:23;99629.21;;;23.28;35.33
44313;BME280;38833;51.142;-0.974;2022-10-16T13:25:08;99625.70;;;23.44;35.43
44313;BME280;38833;51.142;-0.974;2022-10-16T13:27:49;99624.12;;;23.74;35.46
44313;BME280;38833;51.142;-0.974;2022-10-16T13:30:26;99624.91;;;23.57;35.31
44313;BME280;38833;51.142;-0.974;2022-10-16T13:33:02;99619.74;;;23.63;35.21
44313;BME280;38833;51.142;-0.974;2022-10-16T13:35:36;99612.23;;;23.62;35.24
44313;BME280;38833;51.142;-0.974;2022-10-16T13:38:13;99609.51;;;23.50;35.12
44313;BME280;38833;51.142;-0.974;2022-10-16T13:40:52;99603.07;;;23.57;35.27